createdAt,value
2023-01-27T00:01:26.116Z,20.10
2023-01-27T00:03:54.705Z,21.90
2023-01-27T00:06:22.915Z,23.20
2023-01-27T00:08:53.739Z,21.70
2023-01-27T00:11:40.580Z,19.10
2023-01-27T00:14:08.963Z,18.10
2023-01-27T00:16:37.451Z,19.70
2023-01-27T00:19:05.980Z,19.20
2023-01-27T00:21:52.897Z,19.10
2023-01-27T00:24:36.458Z,18.20
2023-01-27T00:27:09.455Z,19.20
2023-01-27T00:29:40.768Z,17.40
2023-01-27T00:32:28.744Z,19.00
2023-01-27T00:34:57.111Z,19.10
2023-01-27T00:37:25.386Z,19.30
2023-01-27T00:39:53.760Z,19.70
2023-01-27T00:42:22.920Z,20.10
2023-01-27T00:45:09.995Z,21.80
2023-01-27T00:47:38.443Z,19.60
2023-01-27T00:50:08.079Z,19.10
2023-01-27T00:52:36.841Z,17.70
2023-01-27T00:55:06.525Z,19.30
2023-01-27T00:57:35.411Z,19.50
2023-01-27T01:00:05.541Z,19.40
2023-01-27T01:02:34.449Z,20.40
2023-01-27T01:05:03.411Z,20.60
2023-01-27T01:07:31.920Z,21.70
2023-01-27T01:10:00.279Z,20.70
2023-01-27T01:12:29.896Z,20.00
2023-01-27T01:14:58.102Z,20.50
2023-01-27T01:17:26.437Z,21.60
2023-01-27T01:19:54.375Z,22.40
2023-01-27T01:22:22.584Z,23.90
2023-01-27T01:24:50.966Z,22.60
2023-01-27T01:27:19.446Z,21.50
2023-01-27T01:29:47.709Z,19.50
2023-01-27T01:32:15.885Z,20.10
2023-01-27T01:34:44.708Z,21.40
2023-01-27T01:37:12.849Z,20.00
2023-01-27T01:39:43.567Z,21.60
2023-01-27T01:42:11.759Z,20.30
2023-01-27T01:44:43.229Z,19.10
2023-01-27T01:47:16.053Z,19.60
2023-01-27T01:49:44.948Z,21.30
2023-01-27T01:52:15.629Z,20.60
2023-01-27T01:54:53.891Z,22.50
2023-01-27T01:57:25.130Z,21.20
2023-01-27T01:59:55.831Z,23.20
2023-01-27T02:02:25.271Z,21.40
2023-01-27T02:05:00.187Z,22.90
2023-01-27T02:07:33.622Z,23.30
2023-01-27T02:10:01.612Z,24.00
2023-01-27T02:12:31.735Z,24.60
2023-01-27T02:15:01.591Z,24.50
2023-01-27T02:17:30.452Z,25.70
2023-01-27T02:20:07.813Z,22.90
2023-01-27T02:22:38.761Z,24.00
2023-01-27T02:25:16.119Z,24.10
2023-01-27T02:27:44.604Z,24.40
2023-01-27T02:30:12.806Z,25.00
2023-01-27T02:32:41.791Z,26.50
2023-01-27T02:35:12.130Z,24.30
2023-01-27T02:37:40.425Z,26.10
2023-01-27T02:40:09.979Z,25.20
2023-01-27T02:42:38.356Z,26.10
2023-01-27T02:45:07.186Z,27.20
2023-01-27T02:47:35.448Z,27.50
2023-01-27T02:50:03.852Z,29.00
2023-01-27T02:52:32.517Z,28.20
2023-01-27T02:55:01.204Z,27.20
2023-01-27T02:57:29.421Z,26.00
2023-01-27T03:00:33.097Z,28.70
2023-01-27T03:03:01.355Z,28.80
2023-01-27T03:05:29.643Z,29.30
2023-01-27T03:07:58.321Z,30.10
2023-01-27T03:10:26.984Z,29.80
2023-01-27T03:12:55.362Z,29.10
2023-01-27T03:15:42.547Z,28.30
2023-01-27T03:18:12.468Z,31.00
2023-01-27T03:20:41.231Z,30.10
2023-01-27T03:23:09.885Z,31.30
2023-01-27T03:25:48.248Z,31.30
2023-01-27T03:28:16.763Z,29.80
2023-01-27T03:30:51.130Z,27.30
2023-01-27T03:33:22.447Z,30.20
2023-01-27T03:36:12.430Z,29.70
2023-01-27T03:39:06.923Z,30.40
2023-01-27T03:41:54.714Z,32.40
2023-01-27T03:44:42.782Z,31.40
2023-01-27T03:47:11.413Z,29.90
2023-01-27T03:49:39.803Z,31.70
2023-01-27T03:52:07.749Z,31.60
2023-01-27T03:54:35.764Z,31.70
2023-01-27T03:57:06.606Z,33.00
2023-01-27T03:59:36.159Z,34.20
2023-01-27T04:02:23.442Z,30.20
2023-01-27T04:05:10.314Z,32.30
2023-01-27T04:07:38.443Z,28.70
2023-01-27T04:10:07.411Z,31.10
2023-01-27T04:12:35.542Z,30.90
2023-01-27T04:15:04.506Z,30.90
2023-01-27T04:17:39.000Z,30.60
2023-01-27T04:20:08.734Z,31.50
2023-01-27T04:22:36.969Z,31.90
2023-01-27T04:25:12.179Z,32.90
2023-01-27T04:27:43.560Z,32.80
2023-01-27T04:30:11.958Z,34.40
2023-01-27T04:32:39.968Z,32.60
2023-01-27T04:35:08.629Z,31.30
2023-01-27T04:37:37.503Z,32.70
2023-01-27T04:40:06.321Z,30.80
2023-01-27T04:42:34.986Z,32.10
2023-01-27T04:45:03.749Z,33.20
2023-01-27T04:47:33.220Z,30.90
2023-01-27T04:50:01.230Z,30.50
2023-01-27T04:52:29.688Z,30.10
2023-01-27T04:54:57.689Z,32.00
2023-01-27T04:57:27.522Z,30.50
2023-01-27T04:59:55.642Z,31.40
2023-01-27T05:02:25.347Z,33.20
2023-01-27T05:04:53.598Z,31.00
2023-01-27T05:07:21.754Z,30.30
2023-01-27T05:09:50.150Z,31.70
2023-01-27T05:12:18.386Z,30.90
2023-01-27T05:14:46.712Z,33.00
2023-01-27T05:17:15.019Z,32.40
2023-01-27T05:19:43.136Z,31.10
2023-01-27T05:22:11.613Z,31.90
2023-01-27T05:24:40.058Z,30.40
2023-01-27T05:27:08.368Z,32.20
2023-01-27T05:29:36.834Z,32.80
2023-01-27T05:32:05.037Z,33.00
2023-01-27T05:34:35.358Z,35.70
2023-01-27T05:37:03.603Z,33.50
2023-01-27T05:39:31.621Z,30.50
2023-01-27T05:41:59.634Z,32.40
2023-01-27T05:44:27.562Z,32.80
2023-01-27T05:46:55.809Z,32.70
2023-01-27T05:49:23.999Z,33.60
2023-01-27T05:51:51.998Z,32.70
2023-01-27T05:54:20.851Z,29.10
2023-01-27T05:56:49.523Z,28.40
2023-01-27T05:59:17.817Z,29.10
2023-01-27T06:01:45.928Z,30.20
2023-01-27T06:04:15.305Z,31.80
2023-01-27T06:06:45.578Z,34.30
2023-01-27T06:09:13.917Z,30.20
2023-01-27T06:11:41.971Z,28.40
2023-01-27T06:14:11.927Z,31.50
2023-01-27T06:16:40.255Z,31.90
2023-01-27T06:19:10.802Z,33.50
2023-01-27T06:21:39.202Z,32.60
2023-01-27T06:24:07.688Z,33.80
2023-01-27T06:26:36.015Z,32.60
2023-01-27T06:29:04.799Z,32.90
2023-01-27T06:31:33.845Z,34.70
2023-01-27T06:34:02.785Z,36.20
2023-01-27T06:36:33.416Z,35.90
2023-01-27T06:39:01.865Z,33.60
2023-01-27T06:41:30.073Z,33.70
2023-01-27T06:43:58.002Z,33.70
2023-01-27T06:46:26.126Z,34.50
2023-01-27T06:48:54.187Z,34.40
2023-01-27T06:51:22.072Z,35.00
2023-01-27T06:53:50.083Z,37.10
2023-01-27T06:56:18.090Z,38.50
2023-01-27T06:58:46.302Z,38.20
2023-01-27T07:01:14.489Z,35.00
2023-01-27T07:03:44.716Z,35.60
2023-01-27T07:06:15.178Z,37.50
2023-01-27T07:08:47.653Z,37.70
2023-01-27T07:11:15.929Z,36.80
2023-01-27T07:13:44.123Z,37.90
2023-01-27T07:16:12.439Z,37.60
2023-01-27T07:18:40.755Z,43.10
2023-01-27T07:21:08.750Z,38.90
2023-01-27T07:23:36.715Z,40.50
2023-01-27T07:26:12.439Z,41.10
2023-01-27T07:28:47.517Z,33.30
2023-01-27T07:31:15.597Z,40.10
2023-01-27T07:33:45.600Z,38.60
2023-01-27T07:36:14.006Z,39.20
2023-01-27T07:38:42.029Z,38.40
2023-01-27T07:41:10.095Z,39.90
2023-01-27T07:43:38.596Z,41.20
2023-01-27T07:46:09.416Z,41.10
2023-01-27T07:48:37.504Z,41.60
2023-01-27T07:51:06.416Z,40.50
2023-01-27T07:53:34.707Z,39.40
2023-01-27T07:56:02.845Z,38.30
2023-01-27T07:58:31.520Z,37.10
2023-01-27T08:00:59.755Z,40.50
2023-01-27T08:03:28.081Z,39.80
2023-01-27T08:05:56.118Z,39.50
2023-01-27T08:08:25.306Z,40.30
2023-01-27T08:10:54.572Z,36.50
2023-01-27T08:13:23.155Z,36.00
2023-01-27T08:15:57.218Z,37.40
2023-01-27T08:18:26.382Z,36.80
2023-01-27T08:20:54.667Z,38.30
2023-01-27T08:23:22.811Z,37.30
2023-01-27T08:25:52.525Z,38.20
2023-01-27T08:28:21.243Z,38.40
2023-01-27T08:30:52.016Z,37.80
2023-01-27T08:33:22.584Z,38.00
2023-01-27T08:35:51.005Z,37.10
2023-01-27T08:38:19.842Z,39.10
2023-01-27T08:40:48.764Z,41.60
2023-01-27T08:43:17.464Z,41.00
2023-01-27T08:45:46.881Z,37.60
2023-01-27T08:48:16.077Z,38.90
2023-01-27T08:50:44.579Z,39.20
2023-01-27T08:53:12.537Z,41.80
2023-01-27T08:55:41.115Z,42.90
2023-01-27T08:58:09.207Z,40.90
2023-01-27T09:00:37.425Z,45.60
2023-01-27T09:03:05.545Z,45.80
2023-01-27T09:05:35.628Z,42.80
2023-01-27T09:08:04.257Z,41.10
2023-01-27T09:10:32.456Z,45.20
2023-01-27T09:13:01.032Z,44.90
2023-01-27T09:15:29.320Z,44.20
2023-01-27T09:17:57.359Z,41.90
2023-01-27T09:20:25.420Z,44.20
2023-01-27T09:22:55.315Z,45.80
2023-01-27T09:25:23.266Z,43.30
2023-01-27T09:27:55.837Z,42.70
2023-01-27T09:30:24.123Z,41.10
2023-01-27T09:32:52.816Z,48.10
2023-01-27T09:35:20.779Z,43.30
2023-01-27T09:37:57.680Z,44.00
2023-01-27T09:40:33.457Z,45.70
2023-01-27T09:43:24.737Z,45.40
2023-01-27T09:46:15.386Z,46.00
2023-01-27T09:49:32.744Z,45.70
2023-01-27T09:52:47.893Z,43.50
2023-01-27T09:55:38.236Z,42.70
2023-01-27T09:58:19.619Z,46.00
2023-01-27T10:00:57.829Z,46.40
2023-01-27T10:03:38.952Z,43.60
2023-01-27T10:06:24.983Z,45.00
2023-01-27T10:09:18.776Z,45.70
2023-01-27T10:11:56.622Z,42.50
2023-01-27T10:14:39.980Z,40.20
2023-01-27T10:17:20.071Z,42.00
2023-01-27T10:19:54.676Z,42.90
2023-01-27T10:22:39.153Z,44.30
2023-01-27T10:25:25.026Z,45.70
2023-01-27T10:27:59.457Z,44.70
2023-01-27T10:30:35.132Z,43.20
2023-01-27T10:33:18.757Z,44.00
2023-01-27T10:35:55.656Z,44.90
2023-01-27T10:38:35.674Z,45.60
2023-01-27T10:41:07.006Z,42.10
2023-01-27T10:43:59.975Z,44.50
2023-01-27T10:46:52.776Z,46.40
2023-01-27T10:49:26.456Z,46.80
2023-01-27T10:54:34.214Z,46.50
2023-01-27T10:57:08.915Z,46.30
2023-01-27T11:00:35.740Z,45.90
2023-01-27T11:03:06.271Z,48.40
2023-01-27T11:05:39.972Z,51.50
2023-01-27T11:11:10.168Z,49.80
2023-01-27T11:13:38.693Z,51.40
2023-01-27T11:16:17.969Z,48.90
2023-01-27T11:18:47.020Z,49.00
2023-01-27T11:21:19.894Z,48.20
2023-01-27T11:23:52.015Z,51.20
2023-01-27T11:26:42.666Z,50.70
2023-01-27T11:29:23.997Z,51.60
2023-01-27T11:32:06.146Z,48.30
2023-01-27T11:34:41.050Z,45.50
2023-01-27T11:37:38.847Z,48.50
2023-01-27T11:40:26.379Z,49.40
2023-01-27T11:45:02.675Z,49.80
2023-01-27T11:47:34.211Z,51.40
2023-01-27T11:50:02.401Z,56.20
2023-01-27T11:52:30.685Z,53.50
2023-01-27T11:55:10.937Z,55.60
2023-01-27T11:57:42.444Z,55.10
2023-01-27T12:00:26.925Z,57.30
2023-01-27T12:03:28.523Z,54.00
2023-01-27T12:05:59.377Z,49.90
2023-01-27T12:08:36.556Z,52.30
2023-01-27T12:11:21.362Z,51.90
2023-01-27T12:13:56.648Z,52.50
2023-01-27T12:16:45.122Z,55.50
2023-01-27T12:19:22.907Z,54.70
2023-01-27T12:21:52.740Z,55.40
2023-01-27T12:24:24.710Z,52.80
2023-01-27T12:26:53.553Z,56.00
2023-01-27T12:29:41.096Z,53.10
2023-01-27T12:32:18.199Z,50.80
2023-01-27T12:34:47.923Z,43.00
2023-01-27T12:37:24.337Z,42.40
2023-01-27T12:39:57.645Z,39.20
2023-01-27T12:43:10.724Z,42.30
2023-01-27T12:45:39.328Z,40.00
2023-01-27T12:48:13.036Z,41.60
2023-01-27T12:50:43.127Z,37.40
2023-01-27T12:53:15.109Z,38.70
2023-01-27T12:55:47.300Z,36.70
2023-01-27T12:58:29.167Z,39.40
2023-01-27T13:00:58.416Z,37.90
2023-01-27T13:03:28.133Z,36.50
2023-01-27T13:05:58.477Z,34.70
2023-01-27T13:08:27.854Z,37.10
2023-01-27T13:11:00.243Z,33.70
2023-01-27T13:13:30.241Z,34.30
2023-01-27T13:16:17.719Z,35.40
2023-01-27T13:18:53.361Z,31.30
2023-01-27T13:21:23.967Z,32.40
2023-01-27T13:23:52.247Z,29.80
2023-01-27T13:26:29.697Z,29.50
2023-01-27T13:29:12.047Z,30.70
2023-01-27T13:31:49.762Z,29.90
2023-01-27T13:34:37.169Z,30.10
2023-01-27T13:37:05.511Z,30.10
2023-01-27T13:39:54.973Z,29.60
2023-01-27T13:42:29.400Z,29.40
2023-01-27T13:45:06.534Z,29.10
2023-01-27T13:47:35.829Z,28.50
2023-01-27T13:51:03.619Z,28.80
2023-01-27T13:53:31.828Z,28.50
2023-01-27T13:56:20.832Z,28.30
2023-01-27T13:59:13.662Z,27.70
2023-01-27T14:01:47.874Z,29.00
2023-01-27T14:04:31.205Z,30.60
2023-01-27T14:07:09.601Z,30.30
2023-01-27T14:09:41.671Z,27.60
2023-01-27T14:12:41.615Z,26.50
2023-01-27T14:15:16.102Z,27.20
2023-01-27T14:18:14.916Z,26.80
2023-01-27T14:20:46.206Z,28.30
2023-01-27T14:23:33.094Z,28.50
2023-01-27T14:26:08.520Z,27.50
2023-01-27T14:28:55.118Z,26.10
2023-01-27T14:31:32.573Z,26.50
2023-01-27T14:34:25.345Z,23.50
2023-01-27T14:37:13.242Z,23.00
2023-01-27T14:39:47.869Z,24.40
2023-01-27T14:42:40.710Z,23.80
2023-01-27T14:45:24.223Z,21.70
2023-01-27T14:48:31.625Z,24.80
2023-01-27T14:51:03.462Z,21.50
2023-01-27T14:53:48.004Z,22.40
2023-01-27T14:56:22.727Z,21.00
2023-01-27T14:58:59.164Z,20.60
2023-01-27T15:01:43.083Z,21.50
2023-01-27T15:04:23.985Z,23.20
2023-01-27T15:07:06.451Z,23.40
2023-01-27T15:09:49.216Z,23.90
2023-01-27T15:12:32.712Z,22.70
2023-01-27T15:15:35.318Z,22.30
2023-01-27T15:18:04.110Z,22.10
2023-01-27T15:20:49.485Z,22.90
2023-01-27T15:23:49.582Z,22.30
2023-01-27T15:26:19.964Z,23.80
2023-01-27T15:28:48.090Z,25.60
2023-01-27T15:31:17.148Z,24.30
2023-01-27T15:33:56.082Z,22.60
2023-01-27T15:36:26.949Z,21.60
2023-01-27T15:39:02.706Z,22.00
2023-01-27T15:41:30.886Z,22.20
2023-01-27T15:44:19.173Z,21.70
2023-01-27T15:46:48.492Z,22.20
2023-01-27T15:49:27.362Z,22.70
2023-01-27T15:51:57.041Z,21.10
2023-01-27T15:54:27.981Z,20.40
2023-01-27T15:57:03.690Z,20.60
2023-01-27T15:59:57.179Z,20.40
2023-01-27T16:02:29.051Z,21.90
2023-01-27T16:05:05.362Z,23.60
2023-01-27T16:07:36.007Z,23.10
2023-01-27T16:10:04.886Z,22.70
2023-01-27T16:12:39.058Z,20.60
2023-01-27T16:15:30.050Z,20.90
2023-01-27T16:18:07.042Z,22.00
2023-01-27T16:20:42.345Z,21.20
2023-01-27T16:23:48.018Z,22.30
2023-01-27T16:26:33.060Z,21.70
2023-01-27T16:29:25.804Z,20.80
2023-01-27T16:32:04.651Z,21.00
2023-01-27T16:34:40.255Z,21.80
2023-01-27T16:37:25.183Z,20.40
2023-01-27T16:40:11.256Z,22.70
2023-01-27T16:42:46.150Z,20.20
2023-01-27T16:45:25.449Z,20.80
2023-01-27T16:48:05.196Z,20.00
2023-01-27T16:50:40.800Z,19.80
2023-01-27T16:53:16.495Z,19.60
2023-01-27T16:56:23.698Z,20.40
2023-01-27T16:58:58.646Z,19.20
2023-01-27T17:01:47.767Z,18.10
2023-01-27T17:04:25.108Z,17.90
2023-01-27T17:06:58.433Z,16.50
2023-01-27T17:09:28.453Z,18.00
2023-01-27T17:11:57.440Z,18.80
2023-01-27T17:14:36.351Z,18.60
2023-01-27T17:17:18.322Z,18.80
2023-01-27T17:19:47.908Z,19.00
2023-01-27T17:22:26.081Z,19.90
2023-01-27T17:25:03.352Z,18.80
2023-01-27T17:27:38.425Z,20.20
2023-01-27T17:30:08.528Z,20.40
2023-01-27T17:32:41.215Z,19.80
2023-01-27T17:35:29.016Z,19.70
2023-01-27T17:38:12.424Z,19.10
2023-01-27T17:40:43.944Z,19.50
2023-01-27T17:43:32.812Z,18.20
2023-01-27T17:46:09.731Z,20.30
2023-01-27T17:48:46.036Z,20.40
2023-01-27T17:51:14.221Z,22.20
2023-01-27T17:53:42.487Z,21.60
2023-01-27T17:56:20.190Z,18.60
2023-01-27T18:48:47.005Z,24.00
2023-01-27T18:51:19.027Z,21.70
2023-01-27T18:53:46.476Z,21.90
2023-01-27T18:56:13.370Z,20.80
2023-01-27T18:58:40.075Z,19.80
2023-01-27T19:01:14.293Z,21.60
2023-01-27T19:03:41.953Z,21.80
2023-01-27T19:06:11.509Z,21.10
2023-01-27T19:08:38.885Z,18.90
2023-01-27T19:11:05.591Z,21.10
2023-01-27T19:13:32.829Z,21.00
2023-01-27T19:15:59.925Z,19.20
2023-01-27T19:18:31.487Z,21.70
2023-01-27T19:20:58.342Z,21.30
2023-01-27T19:23:25.941Z,23.20
2023-01-27T19:25:54.035Z,21.70
2023-01-27T19:28:24.190Z,21.90
2023-01-27T19:30:51.050Z,21.40
2023-01-27T19:33:21.433Z,20.40
2023-01-27T19:36:00.444Z,23.20
2023-01-27T19:38:28.536Z,21.00
2023-01-27T19:40:56.193Z,23.30
2023-01-27T19:43:23.004Z,21.80
2023-01-27T19:45:50.318Z,21.80
2023-01-27T19:48:19.057Z,22.40
2023-01-27T19:50:46.390Z,20.60
2023-01-27T19:53:14.441Z,21.40
2023-01-27T19:55:41.346Z,21.70
2023-01-27T19:58:26.990Z,21.00
2023-01-27T20:00:57.216Z,21.60
2023-01-27T20:03:24.783Z,21.10
2023-01-27T20:05:52.979Z,20.60
2023-01-27T20:08:23.299Z,19.10
2023-01-27T20:10:50.893Z,20.20
2023-01-27T20:13:18.991Z,21.00
2023-01-27T20:15:47.631Z,20.30
2023-01-27T20:18:15.468Z,20.20
2023-01-27T20:20:43.651Z,21.90
2023-01-27T20:23:11.840Z,22.00
2023-01-27T20:25:38.712Z,21.10
2023-01-27T20:28:05.636Z,21.00
2023-01-27T20:30:33.183Z,20.90
2023-01-27T20:33:01.038Z,21.00
2023-01-27T20:35:28.097Z,21.40
2023-01-27T20:37:55.006Z,21.80
2023-01-27T20:40:23.683Z,22.30
2023-01-27T20:42:51.036Z,26.00
2023-01-27T20:45:18.117Z,22.50
2023-01-27T20:47:49.013Z,22.70
2023-01-27T20:50:16.198Z,21.50
2023-01-27T20:52:43.770Z,21.10
2023-01-27T20:55:11.096Z,21.80
2023-01-27T20:57:39.596Z,21.80
2023-01-27T21:00:07.069Z,22.90
2023-01-27T21:02:33.767Z,23.80
2023-01-27T21:05:02.881Z,22.50
2023-01-27T21:07:29.634Z,23.50
2023-01-27T21:09:56.230Z,20.10
2023-01-27T21:12:23.168Z,20.40
2023-01-27T21:14:51.208Z,21.20
2023-01-27T21:17:18.119Z,22.50
2023-01-27T21:19:44.860Z,23.20
2023-01-27T21:22:11.851Z,24.00
2023-01-27T21:24:38.587Z,23.70
2023-01-27T21:27:05.729Z,25.00
2023-01-27T21:29:33.561Z,22.80
2023-01-27T21:32:00.529Z,23.00
2023-01-27T21:34:27.386Z,23.90
2023-01-27T21:36:55.392Z,25.20
2023-01-27T21:39:23.184Z,25.30
2023-01-27T21:41:52.932Z,26.40
2023-01-27T21:44:46.384Z,24.00
2023-01-27T21:47:14.756Z,23.90
2023-01-27T21:50:01.051Z,24.50
2023-01-27T21:52:50.525Z,23.90
2023-01-27T21:55:21.828Z,23.40
2023-01-27T21:57:50.265Z,23.40
2023-01-27T22:00:26.199Z,22.00
2023-01-27T22:03:02.159Z,20.90
2023-01-27T22:05:30.517Z,21.00
2023-01-27T22:07:57.672Z,21.00
2023-01-27T22:10:25.867Z,23.10
2023-01-27T22:12:56.962Z,22.90
2023-01-27T22:15:23.554Z,22.50
2023-01-27T22:17:51.711Z,23.70
2023-01-27T22:20:18.595Z,22.90
2023-01-27T22:22:45.301Z,20.30
2023-01-27T22:25:13.718Z,20.90
2023-01-27T22:27:41.641Z,21.80
2023-01-27T22:30:12.981Z,21.20
2023-01-27T22:32:40.185Z,22.40
2023-01-27T22:35:07.855Z,25.10
2023-01-27T22:37:35.095Z,24.30
2023-01-27T22:40:02.242Z,22.20
2023-01-27T22:42:29.780Z,21.40
2023-01-27T22:44:57.222Z,20.70
2023-01-27T22:47:23.846Z,22.30
2023-01-27T22:49:50.876Z,21.60
2023-01-27T22:52:17.842Z,19.10
2023-01-27T22:54:44.735Z,21.80
2023-01-27T22:57:11.805Z,20.30
2023-01-27T22:59:38.977Z,19.30
2023-01-27T23:02:05.893Z,21.20
2023-01-27T23:04:32.794Z,21.20
2023-01-27T23:06:59.861Z,22.50
2023-01-27T23:09:26.700Z,23.70
2023-01-27T23:11:53.765Z,21.40
2023-01-27T23:14:20.661Z,21.80
2023-01-27T23:16:47.540Z,22.30
2023-01-27T23:19:14.498Z,22.60
2023-01-27T23:21:42.203Z,22.10
2023-01-27T23:24:09.104Z,24.50
2023-01-27T23:26:37.133Z,23.40
2023-01-27T23:29:06.765Z,22.40
2023-01-27T23:31:37.845Z,22.80
2023-01-27T23:34:04.852Z,20.80
2023-01-27T23:36:32.171Z,23.30
2023-01-27T23:38:58.874Z,20.60
2023-01-27T23:41:26.642Z,22.40
2023-01-27T23:43:57.413Z,22.40
2023-01-27T23:46:24.584Z,22.90
2023-01-27T23:48:52.989Z,20.20
2023-01-27T23:51:20.063Z,20.20
2023-01-27T23:53:48.644Z,19.80
2023-01-27T23:56:18.537Z,18.50
2023-01-27T23:58:45.535Z,18.30
